sensor_id;sensor_type;location;lat;lon;timestamp;pressure;altitude;pressure_sealevel;temperature;humidity
30875;BME280;17581;43.222;27.924;2023-04-08T00:00:48;101175.19;;;10.89;55.55
30875;BME280;17581;43.222;27.924;2023-04-08T00:03:14;101166.88;;;10.92;55.80
30875;BME280;17581;43.222;27.924;2023-04-08T00:05:39;101177.31;;;10.97;55.30
30875;BME280;17581;43.222;27.924;2023-04-08T00:08:05;101151.31;;;10.85;55.14
30875;BME280;17581;43.222;27.924;2023-04-08T00:10:31;101173.38;;;10.90;54.85
30875;BME280;17581;43.222;27.924;2023-04-08T00:12:56;101165.78;;;10.71;54.10
30875;BME280;17581;43.222;27.924;2023-04-08T00:15:22;101166.84;;;10.81;54.47
30875;BME280;17581;43.222;27.924;2023-04-08T00:17:47;101166.84;;;10.81;54.49
30875;BME280;17581;43.222;27.924;2023-04-08T00:20:13;101170.94;;;10.74;55.16
30875;BME280;17581;43.222;27.924;2023-04-08T00:22:38;101162.69;;;10.65;56.10
30875;BME280;17581;43.222;27.924;2023-04-08T00:25:04;101169.28;;;10.61;56.64
30875;BME280;17581;43.222;27.924;2023-04-08T00:27:33;101168.31;;;10.49;57.67
30875;BME280;17581;43.222;27.924;2023-04-08T00:29:59;101161.13;;;10.37;58.80
30875;BME280;17581;43.222;27.924;2023-04-08T00:32:26;101170.16;;;10.49;59.33
30875;BME280;17581;43.222;27.924;2023-04-08T00:34:52;101169.94;;;10.52;60.03
30875;BME280;17581;43.222;27.924;2023-04-08T00:37:18;101169.09;;;10.51;60.75
30875;BME280;17581;43.222;27.924;2023-04-08T00:39:43;101174.25;;;10.54;62.27
30875;BME280;17581;43.222;27.924;2023-04-08T00:42:09;101167.47;;;10.49;63.05
30875;BME280;17581;43.222;27.924;2023-04-08T00:44:34;101163.56;;;10.53;62.89
30875;BME280;17581;43.222;27.924;2023-04-08T00:47:00;101167.34;;;10.50;63.66
30875;BME280;17581;43.222;27.924;2023-04-08T00:49:26;101171.13;;;10.48;64.39
30875;BME280;17581;43.222;27.924;2023-04-08T00:51:52;101171.00;;;10.49;64.30
30875;BME280;17581;43.222;27.924;2023-04-08T00:54:18;101161.22;;;10.48;64.18
30875;BME280;17581;43.222;27.924;2023-04-08T00:56:43;101175.47;;;10.61;63.59
30875;BME280;17581;43.222;27.924;2023-04-08T00:59:09;101173.16;;;10.57;63.35
30875;BME280;17581;43.222;27.924;2023-04-08T01:04:28;101164.16;;;10.45;63.69
30875;BME280;17581;43.222;27.924;2023-04-08T01:07:17;101182.75;;;10.48;63.62
30875;BME280;17581;43.222;27.924;2023-04-08T01:09:47;101181.25;;;10.44;63.82
30875;BME280;17581;43.222;27.924;2023-04-08T01:12:19;101159.31;;;10.37;63.57
30875;BME280;17581;43.222;27.924;2023-04-08T01:14:46;101180.94;;;10.49;64.19
30875;BME280;17581;43.222;27.924;2023-04-08T01:17:14;101161.34;;;10.34;64.03
30875;BME280;17581;43.222;27.924;2023-04-08T01:19:41;101166.72;;;10.47;64.08
30875;BME280;17581;43.222;27.924;2023-04-08T01:22:14;101173.41;;;10.41;63.62
30875;BME280;17581;43.222;27.924;2023-04-08T01:24:44;101173.75;;;10.24;64.03
30875;BME280;17581;43.222;27.924;2023-04-08T01:27:12;101175.34;;;10.26;64.83
30875;BME280;17581;43.222;27.924;2023-04-08T01:29:38;101169.56;;;10.20;65.17
30875;BME280;17581;43.222;27.924;2023-04-08T01:32:06;101180.72;;;10.26;64.66
30875;BME280;17581;43.222;27.924;2023-04-08T01:34:33;101167.72;;;10.33;64.15
30875;BME280;17581;43.222;27.924;2023-04-08T01:37:01;101169.41;;;10.34;63.12
30875;BME280;17581;43.222;27.924;2023-04-08T01:39:27;101171.16;;;10.35;59.88
30875;BME280;17581;43.222;27.924;2023-04-08T01:41:55;101163.97;;;10.23;57.93
30875;BME280;17581;43.222;27.924;2023-04-08T01:44:23;101177.59;;;10.32;57.07
30875;BME280;17581;43.222;27.924;2023-04-08T01:46:51;101179.22;;;10.35;57.15
30875;BME280;17581;43.222;27.924;2023-04-08T01:49:18;101167.72;;;10.33;57.71
30875;BME280;17581;43.222;27.924;2023-04-08T01:51:46;101170.41;;;10.33;58.04
30875;BME280;17581;43.222;27.924;2023-04-08T01:54:12;101171.56;;;10.42;58.36
30875;BME280;17581;43.222;27.924;2023-04-08T01:56:40;101161.34;;;10.34;58.74
30875;BME280;17581;43.222;27.924;2023-04-08T01:59:09;101172.00;;;10.48;58.54
30875;BME280;17581;43.222;27.924;2023-04-08T02:01:36;101171.22;;;10.46;57.50
30875;BME280;17581;43.222;27.924;2023-04-08T02:04:02;101165.84;;;10.46;57.98
30875;BME280;17581;43.222;27.924;2023-04-08T02:06:29;101169.75;;;10.42;57.71
30875;BME280;17581;43.222;27.924;2023-04-08T02:08:55;101161.25;;;10.35;57.85
30875;BME280;17581;43.222;27.924;2023-04-08T02:11:21;101169.97;;;10.39;57.61
30875;BME280;17581;43.222;27.924;2023-04-08T02:13:46;101160.91;;;10.40;57.65
30875;BME280;17581;43.222;27.924;2023-04-08T02:16:29;101166.94;;;10.31;57.42
30875;BME280;17581;43.222;27.924;2023-04-08T02:19:13;101169.84;;;10.28;57.79
30875;BME280;17581;43.222;27.924;2023-04-08T02:21:55;101167.38;;;10.25;57.03
30875;BME280;17581;43.222;27.924;2023-04-08T02:24:22;101174.59;;;10.24;56.90
30875;BME280;17581;43.222;27.924;2023-04-08T02:26:49;101184.38;;;10.25;56.65
30875;BME280;17581;43.222;27.924;2023-04-08T02:29:17;101187.94;;;10.26;57.51
30875;BME280;17581;43.222;27.924;2023-04-08T02:31:43;101195.13;;;10.25;57.42
30875;BME280;17581;43.222;27.924;2023-04-08T02:34:10;101201.16;;;10.29;57.38
30875;BME280;17581;43.222;27.924;2023-04-08T02:36:37;101195.56;;;10.32;57.33
30875;BME280;17581;43.222;27.924;2023-04-08T02:39:05;101186.97;;;10.27;57.49
30875;BME280;17581;43.222;27.924;2023-04-08T02:41:31;101190.09;;;10.21;57.21
30875;BME280;17581;43.222;27.924;2023-04-08T02:43:56;101193.97;;;10.17;57.79
30875;BME280;17581;43.222;27.924;2023-04-08T02:46:22;101196.09;;;10.12;57.85
30875;BME280;17581;43.222;27.924;2023-04-08T02:48:48;101199.44;;;10.03;58.57
30875;BME280;17581;43.222;27.924;2023-04-08T02:51:13;101197.69;;;9.89;58.95
30875;BME280;17581;43.222;27.924;2023-04-08T02:53:39;101195.34;;;9.84;60.32
30875;BME280;17581;43.222;27.924;2023-04-08T02:56:04;101202.97;;;9.91;60.28
30875;BME280;17581;43.222;27.924;2023-04-08T02:58:30;101203.28;;;9.86;60.64
30875;BME280;17581;43.222;27.924;2023-04-08T03:00:55;101203.94;;;9.90;60.31
30875;BME280;17581;43.222;27.924;2023-04-08T03:03:21;101191.88;;;9.82;60.26
30875;BME280;17581;43.222;27.924;2023-04-08T03:05:56;101200.34;;;9.76;59.92
30875;BME280;17581;43.222;27.924;2023-04-08T03:08:22;101201.94;;;9.66;59.54
30875;BME280;17581;43.222;27.924;2023-04-08T03:10:48;101201.75;;;9.69;59.61
30875;BME280;17581;43.222;27.924;2023-04-08T03:13:14;101201.13;;;9.66;59.25
30875;BME280;17581;43.222;27.924;2023-04-08T03:15:40;101218.28;;;9.63;59.07
30875;BME280;17581;43.222;27.924;2023-04-08T03:18:06;101198.25;;;9.42;59.49
30875;BME280;17581;43.222;27.924;2023-04-08T03:20:31;101196.97;;;9.35;59.98
30875;BME280;17581;43.222;27.924;2023-04-08T03:22:57;101217.56;;;9.35;59.94
30875;BME280;17581;43.222;27.924;2023-04-08T03:25:22;101208.13;;;9.29;59.95
30875;BME280;17581;43.222;27.924;2023-04-08T03:27:48;101214.28;;;9.17;60.01
30875;BME280;17581;43.222;27.924;2023-04-08T03:30:13;101211.03;;;9.12;60.30
30875;BME280;17581;43.222;27.924;2023-04-08T03:32:38;101196.59;;;9.00;60.28
30875;BME280;17581;43.222;27.924;2023-04-08T03:35:05;101213.84;;;9.10;60.59
30875;BME280;17581;43.222;27.924;2023-04-08T03:37:30;101219.88;;;9.00;60.95
30875;BME280;17581;43.222;27.924;2023-04-08T03:39:56;101220.41;;;8.92;60.97
30875;BME280;17581;43.222;27.924;2023-04-08T03:42:22;101228.28;;;8.81;61.75
30875;BME280;17581;43.222;27.924;2023-04-08T03:44:47;101227.25;;;8.84;62.22
30875;BME280;17581;43.222;27.924;2023-04-08T03:47:13;101227.25;;;8.84;61.81
30875;BME280;17581;43.222;27.924;2023-04-08T03:49:38;101232.81;;;8.81;62.14
30875;BME280;17581;43.222;27.924;2023-04-08T03:52:04;101227.25;;;8.84;62.17
30875;BME280;17581;43.222;27.924;2023-04-08T03:54:29;101223.09;;;8.78;62.19
30875;BME280;17581;43.222;27.924;2023-04-08T03:56:54;101231.25;;;8.77;62.62
30875;BME280;17581;43.222;27.924;2023-04-08T03:59:20;101248.50;;;8.87;62.74
30875;BME280;17581;43.222;27.924;2023-04-08T04:01:45;101241.66;;;8.95;63.10
30875;BME280;17581;43.222;27.924;2023-04-08T04:04:11;101233.91;;;8.91;63.00
30875;BME280;17581;43.222;27.924;2023-04-08T04:06:37;101251.88;;;9.03;63.19
30875;BME280;17581;43.222;27.924;2023-04-08T04:09:02;101245.97;;;8.98;63.11
30875;BME280;17581;43.222;27.924;2023-04-08T04:11:28;101249.00;;;9.06;63.04
30875;BME280;17581;43.222;27.924;2023-04-08T04:13:53;101255.50;;;9.16;62.53
30875;BME280;17581;43.222;27.924;2023-04-08T04:16:19;101258.72;;;9.21;62.80
30875;BME280;17581;43.222;27.924;2023-04-08T04:18:44;101257.25;;;9.29;62.62
30875;BME280;17581;43.222;27.924;2023-04-08T04:21:10;101266.75;;;9.35;62.69
30875;BME280;17581;43.222;27.924;2023-04-08T04:23:35;101252.06;;;9.41;62.79
30875;BME280;17581;43.222;27.924;2023-04-08T04:26:01;101255.66;;;9.54;62.44
30875;BME280;17581;43.222;27.924;2023-04-08T04:28:26;101261.44;;;9.60;62.77
30875;BME280;17581;43.222;27.924;2023-04-08T04:30:52;101244.72;;;9.69;62.73
30875;BME280;17581;43.222;27.924;2023-04-08T04:33:17;101247.88;;;9.89;63.33
30875;BME280;17581;43.222;27.924;2023-04-08T04:35:43;101259.50;;;10.02;63.48
30875;BME280;17581;43.222;27.924;2023-04-08T04:38:08;101247.38;;;10.09;63.99
30875;BME280;17581;43.222;27.924;2023-04-08T04:40:39;101236.03;;;10.18;64.04
30875;BME280;17581;43.222;27.924;2023-04-08T04:43:05;101244.81;;;10.45;64.28
30875;BME280;17581;43.222;27.924;2023-04-08T04:45:31;101239.66;;;10.55;65.07
30875;BME280;17581;43.222;27.924;2023-04-08T04:47:56;101241.13;;;10.59;66.29
30875;BME280;17581;43.222;27.924;2023-04-08T04:50:22;101238.88;;;10.65;66.66
30875;BME280;17581;43.222;27.924;2023-04-08T04:52:47;101241.13;;;10.71;66.55
30875;BME280;17581;43.222;27.924;2023-04-08T04:55:13;101247.22;;;10.73;66.99
30875;BME280;17581;43.222;27.924;2023-04-08T04:57:39;101264.66;;;10.80;67.11
30875;BME280;17581;43.222;27.924;2023-04-08T05:00:06;101253.81;;;10.82;66.26
30875;BME280;17581;43.222;27.924;2023-04-08T05:02:32;101247.34;;;10.84;66.71
30875;BME280;17581;43.222;27.924;2023-04-08T05:04:58;101259.25;;;10.93;66.69
30875;BME280;17581;43.222;27.924;2023-04-08T05:07:24;101265.78;;;11.02;67.10
30875;BME280;17581;43.222;27.924;2023-04-08T05:09:49;101268.56;;;11.13;66.16
30875;BME280;17581;43.222;27.924;2023-04-08T05:12:15;101266.69;;;11.26;66.47
30875;BME280;17581;43.222;27.924;2023-04-08T05:14:40;101271.31;;;11.24;66.47
30875;BME280;17581;43.222;27.924;2023-04-08T05:17:06;101259.72;;;11.11;66.98
30875;BME280;17581;43.222;27.924;2023-04-08T05:19:32;101255.56;;;11.07;67.30
30875;BME280;17581;43.222;27.924;2023-04-08T05:21:57;101270.47;;;11.23;67.61
30875;BME280;17581;43.222;27.924;2023-04-08T05:24:22;101269.81;;;11.20;67.65
30875;BME280;17581;43.222;27.924;2023-04-08T05:26:48;101267.91;;;11.22;67.87
30875;BME280;17581;43.222;27.924;2023-04-08T05:29:17;101263.41;;;11.10;67.74
30875;BME280;17581;43.222;27.924;2023-04-08T05:31:43;101268.56;;;11.13;68.64
30875;BME280;17581;43.222;27.924;2023-04-08T05:34:09;101267.09;;;10.96;69.98
30875;BME280;17581;43.222;27.924;2023-04-08T05:36:35;101270.09;;;11.04;70.34
30875;BME280;17581;43.222;27.924;2023-04-08T05:39:01;101273.88;;;11.02;70.27
30875;BME280;17581;43.222;27.924;2023-04-08T05:41:26;101286.78;;;11.09;70.83
30875;BME280;17581;43.222;27.924;2023-04-08T05:43:53;101275.41;;;11.29;69.92
30875;BME280;17581;43.222;27.924;2023-04-08T05:46:18;101279.84;;;11.18;69.47
30875;BME280;17581;43.222;27.924;2023-04-08T05:48:44;101283.38;;;11.31;69.84
30875;BME280;17581;43.222;27.924;2023-04-08T05:51:13;101271.28;;;11.36;69.59
30875;BME280;17581;43.222;27.924;2023-04-08T05:53:38;101267.22;;;11.31;69.42
30875;BME280;17581;43.222;27.924;2023-04-08T05:56:04;101278.03;;;11.18;69.98
30875;BME280;17581;43.222;27.924;2023-04-08T05:58:29;101283.06;;;11.23;69.59
30875;BME280;17581;43.222;27.924;2023-04-08T06:00:55;101272.97;;;11.14;69.67
30875;BME280;17581;43.222;27.924;2023-04-08T06:03:20;101278.44;;;11.25;69.61
30875;BME280;17581;43.222;27.924;2023-04-08T06:05:46;101282.75;;;11.51;68.99
30875;BME280;17581;43.222;27.924;2023-04-08T06:08:11;101263.94;;;11.38;67.34
30875;BME280;17581;43.222;27.924;2023-04-08T06:10:37;101284.88;;;11.59;66.64
30875;BME280;17581;43.222;27.924;2023-04-08T06:13:02;101286.47;;;11.61;65.56
30875;BME280;17581;43.222;27.924;2023-04-08T06:15:28;101286.81;;;11.57;66.00
30875;BME280;17581;43.222;27.924;2023-04-08T06:17:53;101275.09;;;11.69;65.56
30875;BME280;17581;43.222;27.924;2023-04-08T06:20:18;101278.00;;;11.31;65.43
30875;BME280;17581;43.222;27.924;2023-04-08T06:22:44;101293.25;;;11.43;65.54
30875;BME280;17581;43.222;27.924;2023-04-08T06:25:09;101280.13;;;11.26;65.38
30875;BME280;17581;43.222;27.924;2023-04-08T06:27:35;101290.81;;;11.51;65.04
30875;BME280;17581;43.222;27.924;2023-04-08T06:30:00;101281.94;;;11.62;64.64
30875;BME280;17581;43.222;27.924;2023-04-08T06:32:26;101286.47;;;11.61;65.29
30875;BME280;17581;43.222;27.924;2023-04-08T06:34:51;101275.69;;;11.61;65.84
30875;BME280;17581;43.222;27.924;2023-04-08T06:37:17;101280.69;;;11.55;66.26
30875;BME280;17581;43.222;27.924;2023-04-08T06:39:42;101288.16;;;11.62;67.22
30875;BME280;17581;43.222;27.924;2023-04-08T06:42:08;101285.81;;;11.70;67.04
30875;BME280;17581;43.222;27.924;2023-04-08T06:44:34;101277.59;;;11.72;66.30
30875;BME280;17581;43.222;27.924;2023-04-08T06:46:59;101274.84;;;11.84;65.69
30875;BME280;17581;43.222;27.924;2023-04-08T06:49:25;101271.53;;;11.68;67.28
30875;BME280;17581;43.222;27.924;2023-04-08T06:51:51;101261.78;;;11.43;66.53
30875;BME280;17581;43.222;27.924;2023-04-08T06:54:17;101261.47;;;11.35;68.14
30875;BME280;17581;43.222;27.924;2023-04-08T06:56:42;101286.94;;;11.55;67.11
30875;BME280;17581;43.222;27.924;2023-04-08T06:59:07;101279.19;;;11.74;67.43
30875;BME280;17581;43.222;27.924;2023-04-08T07:01:33;101283.38;;;11.78;65.61
30875;BME280;17581;43.222;27.924;2023-04-08T07:03:58;101279.88;;;11.89;65.68
30875;BME280;17581;43.222;27.924;2023-04-08T07:06:26;101285.19;;;12.02;65.53
30875;BME280;17581;43.222;27.924;2023-04-08T07:08:52;101298.53;;;11.92;65.29
30875;BME280;17581;43.222;27.924;2023-04-08T07:11:17;101293.47;;;11.87;66.17
30875;BME280;17581;43.222;27.924;2023-04-08T07:13:43;101300.22;;;11.69;66.71
30875;BME280;17581;43.222;27.924;2023-04-08T07:16:08;101279.13;;;11.63;67.28
30875;BME280;17581;43.222;27.924;2023-04-08T07:18:34;101284.50;;;11.63;67.73
30875;BME280;17581;43.222;27.924;2023-04-08T07:20:59;101292.91;;;11.71;67.37
30875;BME280;17581;43.222;27.924;2023-04-08T07:23:25;101313.53;;;11.83;67.40
30875;BME280;17581;43.222;27.924;2023-04-08T07:25:51;101301.38;;;12.02;66.56
30875;BME280;17581;43.222;27.924;2023-04-08T07:28:18;101309.72;;;12.10;65.70
30875;BME280;17581;43.222;27.924;2023-04-08T07:30:44;101308.69;;;11.99;67.18
30875;BME280;17581;43.222;27.924;2023-04-08T07:33:10;101314.28;;;11.85;67.41
30875;BME280;17581;43.222;27.924;2023-04-08T07:35:35;101310.50;;;11.64;68.38
30875;BME280;17581;43.222;27.924;2023-04-08T07:38:00;101330.16;;;11.77;69.08
30875;BME280;17581;43.222;27.924;2023-04-08T07:40:26;101317.47;;;11.79;70.13
30875;BME280;17581;43.222;27.924;2023-04-08T07:42:51;101312.53;;;11.73;69.96
30875;BME280;17581;43.222;27.924;2023-04-08T07:45:17;101313.63;;;11.71;70.88
30875;BME280;17581;43.222;27.924;2023-04-08T07:47:43;101324.84;;;11.88;70.91
30875;BME280;17581;43.222;27.924;2023-04-08T07:50:09;101316.22;;;11.83;71.33
30875;BME280;17581;43.222;27.924;2023-04-08T07:52:34;101310.34;;;11.66;71.26
30875;BME280;17581;43.222;27.924;2023-04-08T07:55:00;101331.81;;;11.67;72.36
30875;BME280;17581;43.222;27.924;2023-04-08T07:57:26;101320.00;;;11.57;72.65
30875;BME280;17581;43.222;27.924;2023-04-08T07:59:51;101327.00;;;11.60;73.38
30875;BME280;17581;43.222;27.924;2023-04-08T08:02:17;101326.34;;;11.56;72.61
30875;BME280;17581;43.222;27.924;2023-04-08T08:04:42;101312.81;;;11.45;72.14
30875;BME280;17581;43.222;27.924;2023-04-08T08:07:08;101333.00;;;11.63;73.09
30875;BME280;17581;43.222;27.924;2023-04-08T08:09:33;101324.94;;;11.87;71.29
30875;BME280;17581;43.222;27.924;2023-04-08T08:11:59;101318.19;;;11.81;70.97
30875;BME280;17581;43.222;27.924;2023-04-08T08:14:25;101333.03;;;11.87;70.31
30875;BME280;17581;43.222;27.924;2023-04-08T08:16:51;101329.03;;;11.92;67.77
30875;BME280;17581;43.222;27.924;2023-04-08T08:19:19;101330.50;;;11.96;69.08
30875;BME280;17581;43.222;27.924;2023-04-08T08:21:44;101322.00;;;12.14;69.86
30875;BME280;17581;43.222;27.924;2023-04-08T08:24:09;101342.09;;;12.21;69.49
30875;BME280;17581;43.222;27.924;2023-04-08T08:26:35;101321.63;;;12.18;68.68
30875;BME280;17581;43.222;27.924;2023-04-08T08:29:01;101324.25;;;11.96;68.76
30875;BME280;17581;43.222;27.924;2023-04-08T08:31:26;101331.56;;;12.18;70.01
30875;BME280;17581;43.222;27.924;2023-04-08T08:33:52;101331.47;;;12.19;67.83
30875;BME280;17581;43.222;27.924;2023-04-08T08:36:17;101341.63;;;12.16;68.98
30875;BME280;17581;43.222;27.924;2023-04-08T08:38:43;101342.75;;;12.24;68.05
30875;BME280;17581;43.222;27.924;2023-04-08T08:41:08;101339.22;;;12.35;66.89
30875;BME280;17581;43.222;27.924;2023-04-08T08:43:34;101336.47;;;12.13;67.05
30875;BME280;17581;43.222;27.924;2023-04-08T08:46:00;101327.69;;;12.33;68.31
30875;BME280;17581;43.222;27.924;2023-04-08T08:48:26;101329.16;;;12.26;67.63
30875;BME280;17581;43.222;27.924;2023-04-08T08:50:51;101340.09;;;12.46;67.00
30875;BME280;17581;43.222;27.924;2023-04-08T08:53:17;101350.31;;;12.65;67.14
30875;BME280;17581;43.222;27.924;2023-04-08T08:55:43;101339.91;;;12.72;66.78
30875;BME280;17581;43.222;27.924;2023-04-08T08:58:09;101353.50;;;12.81;66.71
30875;BME280;17581;43.222;27.924;2023-04-08T09:00:40;101350.56;;;12.84;66.77
30875;BME280;17581;43.222;27.924;2023-04-08T09:03:19;101351.78;;;12.58;67.27
30875;BME280;17581;43.222;27.924;2023-04-08T09:05:49;101363.38;;;12.36;67.66
30875;BME280;17581;43.222;27.924;2023-04-08T09:08:35;101357.31;;;12.22;69.29
30875;BME280;17581;43.222;27.924;2023-04-08T09:11:16;101363.28;;;12.49;68.98
30875;BME280;17581;43.222;27.924;2023-04-08T09:13:43;101365.66;;;12.65;67.98
30875;BME280;17581;43.222;27.924;2023-04-08T09:16:11;101358.31;;;12.89;68.13
30875;BME280;17581;43.222;27.924;2023-04-08T09:18:38;101363.13;;;12.96;67.68
30875;BME280;17581;43.222;27.924;2023-04-08T09:21:05;101351.84;;;13.14;66.77
30875;BME280;17581;43.222;27.924;2023-04-08T09:26:11;101360.91;;;13.13;66.62
30875;BME280;17581;43.222;27.924;2023-04-08T09:28:38;101362.41;;;13.39;65.79
30875;BME280;17581;43.222;27.924;2023-04-08T09:31:21;101359.44;;;13.31;65.71
30875;BME280;17581;43.222;27.924;2023-04-08T09:33:48;101366.19;;;13.25;65.04
30875;BME280;17581;43.222;27.924;2023-04-08T09:36:15;101358.97;;;13.15;64.87
30875;BME280;17581;43.222;27.924;2023-04-08T09:38:42;101353.06;;;12.98;65.86
30875;BME280;17581;43.222;27.924;2023-04-08T09:41:07;101362.13;;;12.86;66.86
30875;BME280;17581;43.222;27.924;2023-04-08T09:43:41;101360.91;;;13.01;66.71
30875;BME280;17581;43.222;27.924;2023-04-08T09:46:10;101352.81;;;13.13;66.73
30875;BME280;17581;43.222;27.924;2023-04-08T09:48:41;101359.47;;;13.20;66.34
30875;BME280;17581;43.222;27.924;2023-04-08T09:51:11;101358.22;;;13.13;66.76
30875;BME280;17581;43.222;27.924;2023-04-08T09:53:46;101353.78;;;13.34;66.25
30875;BME280;17581;43.222;27.924;2023-04-08T09:56:13;101358.94;;;13.37;66.07
30875;BME280;17581;43.222;27.924;2023-04-08T09:58:43;101359.69;;;13.28;66.40
30875;BME280;17581;43.222;27.924;2023-04-08T10:01:13;101348.78;;;13.29;66.35
30875;BME280;17581;43.222;27.924;2023-04-08T10:03:45;101354.25;;;13.50;66.19
30875;BME280;17581;43.222;27.924;2023-04-08T10:06:13;101357.75;;;13.30;66.94
30875;BME280;17581;43.222;27.924;2023-04-08T10:08:40;101333.25;;;13.53;66.35
30875;BME280;17581;43.222;27.924;2023-04-08T10:11:06;101335.66;;;13.68;65.40
30875;BME280;17581;43.222;27.924;2023-04-08T10:13:32;101341.03;;;13.36;65.97
30875;BME280;17581;43.222;27.924;2023-04-08T10:16:20;101345.19;;;13.29;66.21
30875;BME280;17581;43.222;27.924;2023-04-08T10:18:47;101349.72;;;13.06;66.49
30875;BME280;17581;43.222;27.924;2023-04-08T10:21:37;101347.03;;;12.95;66.48
30875;BME280;17581;43.222;27.924;2023-04-08T10:24:09;101332.91;;;12.91;66.52
30875;BME280;17581;43.222;27.924;2023-04-08T10:26:35;101331.72;;;13.18;66.70
30875;BME280;17581;43.222;27.924;2023-04-08T10:31:42;101332.66;;;13.28;66.79
30875;BME280;17581;43.222;27.924;2023-04-08T10:34:17;101330.72;;;12.96;67.79
30875;BME280;17581;43.222;27.924;2023-04-08T10:36:44;101321.13;;;12.92;67.51
30875;BME280;17581;43.222;27.924;2023-04-08T10:39:11;101324.06;;;12.78;67.42
30875;BME280;17581;43.222;27.924;2023-04-08T10:41:41;101333.41;;;12.96;68.38
30875;BME280;17581;43.222;27.924;2023-04-08T10:44:17;101332.91;;;13.25;66.41
30875;BME280;17581;43.222;27.924;2023-04-08T10:46:46;101336.13;;;13.30;65.64
30875;BME280;17581;43.222;27.924;2023-04-08T10:49:13;101337.44;;;13.46;66.21
30875;BME280;17581;43.222;27.924;2023-04-08T10:51:39;101339.56;;;13.32;66.54
30875;BME280;17581;43.222;27.924;2023-04-08T10:54:08;101339.69;;;13.19;66.27
30875;BME280;17581;43.222;27.924;2023-04-08T10:56:50;101353.34;;;13.18;65.39
30875;BME280;17581;43.222;27.924;2023-04-08T10:59:17;101342.38;;;13.19;65.84
30875;BME280;17581;43.222;27.924;2023-04-08T11:01:51;101345.94;;;13.31;64.99
30875;BME280;17581;43.222;27.924;2023-04-08T11:04:17;101341.53;;;13.19;65.82
30875;BME280;17581;43.222;27.924;2023-04-08T11:06:47;101347.38;;;12.79;66.05
30875;BME280;17581;43.222;27.924;2023-04-08T11:09:14;101337.31;;;12.70;68.11
30875;BME280;17581;43.222;27.924;2023-04-08T11:11:42;101322.94;;;12.59;67.14
30875;BME280;17581;43.222;27.924;2023-04-08T11:14:08;101342.47;;;12.62;67.44
30875;BME280;17581;43.222;27.924;2023-04-08T11:16:34;101326.53;;;12.70;67.07
30875;BME280;17581;43.222;27.924;2023-04-08T11:19:03;101329.94;;;12.50;69.06
30875;BME280;17581;43.222;27.924;2023-04-08T11:21:30;101335.09;;;12.64;69.06
30875;BME280;17581;43.222;27.924;2023-04-08T11:23:56;101335.97;;;12.76;68.17
30875;BME280;17581;43.222;27.924;2023-04-08T11:26:22;101328.72;;;12.76;67.57
30875;BME280;17581;43.222;27.924;2023-04-08T11:28:49;101319.66;;;12.77;68.07
30875;BME280;17581;43.222;27.924;2023-04-08T11:31:16;101325.31;;;13.07;67.10
30875;BME280;17581;43.222;27.924;2023-04-08T11:33:48;101304.72;;;13.18;66.53
30875;BME280;17581;43.222;27.924;2023-04-08T11:36:16;101313.09;;;13.46;65.63
30875;BME280;17581;43.222;27.924;2023-04-08T11:38:42;101299.59;;;13.46;65.24
30875;BME280;17581;43.222;27.924;2023-04-08T11:41:08;101319.97;;;13.93;64.45
30875;BME280;17581;43.222;27.924;2023-04-08T11:43:34;101298.69;;;14.21;62.88
30875;BME280;17581;43.222;27.924;2023-04-08T11:46:09;101303.66;;;14.36;62.54
30875;BME280;17581;43.222;27.924;2023-04-08T11:48:35;101299.63;;;14.51;61.53
30875;BME280;17581;43.222;27.924;2023-04-08T11:51:03;101293.78;;;14.77;61.55
30875;BME280;17581;43.222;27.924;2023-04-08T11:53:29;101302.63;;;14.79;60.84
30875;BME280;17581;43.222;27.924;2023-04-08T11:55:55;101296.97;;;14.91;61.01
30875;BME280;17581;43.222;27.924;2023-04-08T11:58:20;101295.25;;;14.90;60.54
30875;BME280;17581;43.222;27.924;2023-04-08T12:00:46;101285.56;;;14.88;58.82
30875;BME280;17581;43.222;27.924;2023-04-08T12:03:13;101287.66;;;14.84;59.82
30875;BME280;17581;43.222;27.924;2023-04-08T12:05:38;101294.63;;;14.77;58.81
30875;BME280;17581;43.222;27.924;2023-04-08T12:08:04;101280.38;;;14.75;59.86
30875;BME280;17581;43.222;27.924;2023-04-08T12:10:30;101287.22;;;14.79;58.96
30875;BME280;17581;43.222;27.924;2023-04-08T12:12:56;101284.25;;;14.82;58.87
30875;BME280;17581;43.222;27.924;2023-04-08T12:15:21;101283.31;;;15.02;58.07
30875;BME280;17581;43.222;27.924;2023-04-08T12:17:47;101285.50;;;15.18;57.56
30875;BME280;17581;43.222;27.924;2023-04-08T12:20:12;101274.75;;;14.97;58.18
30875;BME280;17581;43.222;27.924;2023-04-08T12:22:38;101278.38;;;15.17;58.39
30875;BME280;17581;43.222;27.924;2023-04-08T12:25:04;101279.44;;;14.95;57.57
30875;BME280;17581;43.222;27.924;2023-04-08T12:27:30;101274.00;;;14.86;58.88
30875;BME280;17581;43.222;27.924;2023-04-08T12:29:58;101282.72;;;14.99;59.11
30875;BME280;17581;43.222;27.924;2023-04-08T12:32:23;101275.59;;;14.88;58.68
30875;BME280;17581;43.222;27.924;2023-04-08T12:34:50;101258.44;;;14.78;59.36
30875;BME280;17581;43.222;27.924;2023-04-08T12:37:15;101265.84;;;14.76;58.97
30875;BME280;17581;43.222;27.924;2023-04-08T12:39:41;101263.63;;;14.91;58.87
30875;BME280;17581;43.222;27.924;2023-04-08T12:42:06;101244.63;;;14.81;58.69
30875;BME280;17581;43.222;27.924;2023-04-08T12:44:32;101249.91;;;14.92;58.97
30875;BME280;17581;43.222;27.924;2023-04-08T12:46:57;101242.28;;;14.67;58.76